メインページ
METAR-TAF:

METAR-TAF

空港 :

香港, 中華人民共和国

香港国際空港

緯度: 22-19N, 経度: 113-55E, 海抜: 9m

現時点の気象観測

当レポートは17分前の12:00(UTC)に作成
西の風 5kt、南/南西から西の間で変化する
気温 19°C
湿度 73%
気圧 1018 hPa
視程: 9000m
高度2000ftの雲はほとんどない
高度3500ftの雲は散在している

METAR: VHHH 241200Z 26005KT 210V280 9000 FEW020 SCT035 19/14 Q1018 NOSIG

時間: 20:17 (12:17 UTC)

予報

当レポートは1時間17分前の11:00(UTC)に作成
予報は24日の 12時(UTC)から 25日の 18時(UTC)まで有効
の風 10kt
視程: 7000m
高度2000ftの雲はほとんどない
高度3000ftの雲は散在している
24日の 12時(UTC)から 24日の 21時(UTC)まで一時的に
変向風 5kt
24日の 21時(UTC)から 24日の 23時(UTC)まで徐々に
北/北東の風 10kt
24日の 21時(UTC)から 25日の 03時(UTC)まで一時的に
視程: 4000m
靄, 小雨
25日の 03時(UTC)から 25日の 10時(UTC)まで一時的に
北西の風 10kt
視程: 4000m
煙霧

TAF: VHHH 241100Z 2412/2518 10010KT 7000 FEW020 SCT030 TX23/2506Z TN17/2423Z TN16/2518Z TEMPO 2412/2421 VRB05KT BECMG 2421/2423 02010KT TEMPO 2421/2503 4000 BR -RA TEMPO 2503/2510 32010KT 4000 HZ

4,000以上の空港の気象観測と天気予報(METAR報とTAF報)

利用可能な観測所は地図上に黄色い丸と赤い丸で示す。

丸の上にカーソルを重ねると観測所名を参照できる。

次にクリックすると気象観測と天気予報を参照できる。

マップの切り替え:黒色「×」印の緑ボタンをクリックして拡大、「-」印の緑ボタンをクリックして縮小、緑色の三角印をクリックして隣りの地図に切り替え


METAR-TAF: